Time;durP1;ratioP1;P1;durP2;ratioP2;P2;SDS_P1;SDS_P2;PMS_P1;PMS_P2;Temp;Humidity;BMP_temperature;BMP_pressure;BME280_temperature;BME280_humidity;BME280_pressure;Samples;Min_cycle;Max_cycle;Signal;HPM_P1;HPM_P2
2021/08/23 00:02:12;;;;;;;12.18;8.02;;;;;;;;;;7377778;19;20031;-62
2021/08/23 00:04:38;;;;;;;15.57;10.07;;;;;;;;;;7378728;19;20015;-62
2021/08/23 00:07:04;;;;;;;16.20;10.23;;;;;;;;;;7377742;19;20010;-62
2021/08/23 00:09:30;;;;;;;16.77;10.27;;;;;;;;;;7377724;19;20011;-62
2021/08/23 00:11:56;;;;;;;18.80;11.88;;;;;;;;;;7379144;19;20619;-62
2021/08/23 00:14:22;;;;;;;21.63;14.15;;;;;;;;;;7375757;19;20873;-62
2021/08/23 00:16:48;;;;;;;20.27;12.73;;;;;;;;;;7377094;19;20031;-62
2021/08/23 00:19:14;;;;;;;28.70;13.82;;;;;;;;;;7375403;19;20014;-62
2021/08/23 00:21:44;;;;;;;20.45;13.50;;;;;;;;;;7379002;19;20388;-62
2021/08/23 00:24:31;;;;;;;25.52;14.30;;;;;;;;;;7376731;19;20034;-62
2021/08/23 00:26:56;;;;;;;26.10;14.55;;;;;;;;;;7377348;19;20018;-62
2021/08/23 00:29:22;;;;;;;22.02;14.30;;;;;;;;;;7374632;19;20019;-62
2021/08/23 00:31:48;;;;;;;22.27;14.50;;;;;;;;;;7376172;19;20015;-62
2021/08/23 00:34:14;;;;;;;18.77;12.43;;;;;;;;;;7377263;19;20042;-62
2021/08/23 00:36:40;;;;;;;27.30;13.75;;;;;;;;;;7377803;19;20022;-62
2021/08/23 00:39:06;;;;;;;23.58;13.88;;;;;;;;;;7371086;19;20026;-62
2021/08/23 00:41:33;;;;;;;20.15;12.30;;;17.10;99.90;;;;;;7380866;19;20010;-62
2021/08/23 00:43:59;;;;;;;19.48;13.15;;;;;;;;;;7375511;19;20022;-62
2021/08/23 00:46:25;;;;;;;19.20;12.45;;;;;;;;;;7375198;19;20506;-62
2021/08/23 00:48:51;;;;;;;17.55;12.43;;;;;;;;;;7374974;19;20018;-62
2021/08/23 00:51:17;;;;;;;21.42;12.70;;;;;;;;;;7377351;19;20046;-62
2021/08/23 00:53:43;;;;;;;20.88;13.52;;;;;;;;;;7373651;19;20022;-62
2021/08/23 00:56:09;;;;;;;18.58;13.15;;;;;;;;;;7374877;19;20085;-62
2021/08/23 00:58:35;;;;;;;23.95;13.75;;;;;;;;;;7375272;19;20020;-62
2021/08/23 01:01:01;;;;;;;21.17;14.07;;;;;;;;;;7374421;19;20026;-62
2021/08/23 01:03:27;;;;;;;19.27;13.27;;;;;;;;;;7376757;19;20423;-62
2021/08/23 01:05:53;;;;;;;23.50;14.07;;;;;;;;;;7376076;19;20030;-62
2021/08/23 01:08:19;;;;;;;21.95;15.30;;;;;;;;;;7372575;19;20498;-62
2021/08/23 01:10:45;;;;;;;24.13;15.73;;;;;;;;;;7374364;19;20046;-62
2021/08/23 01:13:11;;;;;;;23.80;15.20;;;;;;;;;;7375779;19;20412;-62
2021/08/23 01:15:37;;;;;;;26.20;16.13;;;;;;;;;;7375546;19;20553;-62
2021/08/23 01:18:03;;;;;;;25.75;16.00;;;;;;;;;;7374121;19;20039;-62
2021/08/23 01:20:29;;;;;;;30.58;16.98;;;;;;;;;;7375503;19;20022;-62
2021/08/23 01:22:55;;;;;;;24.50;16.17;;;;;;;;;;7376460;19;20015;-62
2021/08/23 01:25:22;;;;;;;28.08;17.15;;;;;;;;;;7376111;19;20051;-62
2021/08/23 01:27:47;;;;;;;29.08;17.50;;;;;;;;;;7375475;19;20247;-61
2021/08/23 01:30:13;;;;;;;28.90;18.80;;;;;;;;;;7372798;19;20534;-61
2021/08/23 01:32:39;;;;;;;27.38;17.25;;;;;;;;;;7376746;19;20051;-61
2021/08/23 01:35:05;;;;;;;25.80;17.40;;;;;;;;;;7375719;19;20018;-61
2021/08/23 01:37:32;;;;;;;31.45;18.25;;;;;;;;;;7374476;19;20242;-61
2021/08/23 01:39:57;;;;;;;40.30;20.30;;;;;;;;;;7372096;19;20021;-62
2021/08/23 01:42:23;;;;;;;30.60;19.33;;;;;;;;;;7375673;19;20018;-61
2021/08/23 01:44:49;;;;;;;32.10;19.92;;;;;;;;;;7372545;19;20014;-61
2021/08/23 01:47:15;;;;;;;33.88;19.35;;;;;;;;;;7373913;19;20018;-61
2021/08/23 01:49:41;;;;;;;28.75;19.25;;;;;;;;;;7372069;19;20018;-61
2021/08/23 01:52:07;;;;;;;32.70;21.00;;;;;;;;;;7374610;19;20029;-61
2021/08/23 01:54:33;;;;;;;37.03;20.48;;;;;;;;;;7375002;19;20506;-61
2021/08/23 01:56:59;;;;;;;34.17;21.20;;;;;;;;;;7372187;19;20042;-61
2021/08/23 01:59:25;;;;;;;38.50;20.60;;;;;;;;;;7372651;19;20495;-61
2021/08/23 02:01:51;;;;;;;33.80;20.10;;;;;;;;;;7376220;19;20014;-61
2021/08/23 02:04:17;;;;;;;32.28;18.25;;;;;;;;;;7373988;19;20512;-61
2021/08/23 02:06:43;;;;;;;31.02;18.42;;;;;;;;;;7373431;19;20074;-61
2021/08/23 02:09:09;;;;;;;33.50;20.67;;;;;;;;;;7372156;19;20014;-61
2021/08/23 02:11:35;;;;;;;38.28;20.98;;;;;;;;;;7375365;19;20029;-61
2021/08/23 02:14:01;;;;;;;33.72;19.08;;;;;;;;;;7372498;19;20033;-61
2021/08/23 02:16:27;;;;;;;29.23;18.67;;;;;;;;;;7375488;19;20708;-61
2021/08/23 02:18:53;;;;;;;30.77;18.20;;;;;;;;;;7370094;19;20019;-61
2021/08/23 02:21:21;;;;;;;27.42;18.15;;;;;;;;;;7372578;19;20554;-61
2021/08/23 02:23:47;;;;;;;31.08;17.58;;;;;;;;;;7373308;19;20025;-62
2021/08/23 02:26:13;;;;;;;27.30;16.13;;;;;;;;;;7371815;19;20089;-62
2021/08/23 02:28:39;;;;;;;23.88;16.52;;;;;;;;;;7371477;19;20820;-62
2021/08/23 02:31:05;;;;;;;23.13;15.77;;;;;;;;;;7373997;19;20007;-62
2021/08/23 02:33:31;;;;;;;26.02;16.05;;;;;;;;;;7374004;19;20022;-62
2021/08/23 02:35:57;;;;;;;25.30;16.58;;;;;;;;;;7373373;19;20018;-62
2021/08/23 02:38:23;;;;;;;23.80;15.73;;;;;;;;;;7370964;19;20553;-61
2021/08/23 02:40:49;;;;;;;23.77;15.10;;;;;;;;;;7375076;19;20019;-61
2021/08/23 02:43:15;;;;;;;20.10;14.60;;;;;;;;;;7374523;19;20042;-61
2021/08/23 02:45:41;;;;;;;22.60;15.07;;;;;;;;;;7373171;19;20018;-62
2021/08/23 02:48:07;;;;;;;25.98;15.07;;;;;;;;;;7372127;19;20021;-61
2021/08/23 02:50:33;;;;;;;18.85;13.30;;;;;;;;;;7371107;19;20026;-61
2021/08/23 02:52:59;;;;;;;28.50;16.33;;;;;;;;;;7373619;19;20026;-61
2021/08/23 02:55:24;;;;;;;24.63;16.17;;;;;;;;;;7372766;19;20022;-61
2021/08/23 02:57:50;;;;;;;23.58;15.90;;;;;;;;;;7370888;19;20014;-61
2021/08/23 03:00:17;;;;;;;22.55;14.93;;;;;;;;;;7373363;19;20442;-61
2021/08/23 03:02:43;;;;;;;24.00;15.82;;;;;;;;;;7381096;19;20289;-61
2021/08/23 03:05:09;;;;;;;26.13;16.42;;;;;;;;;;7380412;19;20106;-62
2021/08/23 03:07:35;;;;;;;24.92;14.55;;;;;;;;;;7380395;19;20981;-62
2021/08/23 03:10:01;;;;;;;24.55;13.98;;;;;;;;;;7377773;19;20015;-62
2021/08/23 03:12:27;;;;;;;20.90;13.60;;;;;;;;;;7380549;19;20086;-61
2021/08/23 03:14:53;;;;;;;16.83;11.48;;;;;;;;;;7380469;19;20014;-61
2021/08/23 03:17:20;;;;;;;20.02;12.18;;;;;;;;;;7378800;19;20007;-61
2021/08/23 03:19:46;;;;;;;19.15;11.93;;;;;;;;;;7378606;19;20840;-61
2021/08/23 03:22:12;;;;;;;16.40;10.43;;;;;;;;;;7379885;19;20022;-61
2021/08/23 03:24:38;;;;;;;18.30;9.75;;;;;;;;;;7380941;19;20018;-62
2021/08/23 03:27:04;;;;;;;15.63;8.10;;;;;;;;;;7378950;19;20010;-62
2021/08/23 03:29:30;;;;;;;11.35;7.63;;;;;;;;;;7376917;19;20010;-62
2021/08/23 03:31:56;;;;;;;9.32;6.60;;;;;;;;;;7380364;19;20546;-62
2021/08/23 03:34:22;;;;;;;10.07;6.35;;;;;;;;;;7380387;19;20366;-61
2021/08/23 03:36:48;;;;;;;7.97;6.55;;;;;;;;;;7379133;19;20019;-61
2021/08/23 03:39:16;;;;;;;9.43;6.03;;;;;;;;;;7378093;19;20022;-62
2021/08/23 03:41:42;;;;;;;8.55;5.88;;;;;;;;;;7380262;19;20018;-62
2021/08/23 03:44:08;;;;;;;8.55;5.93;;;;;;;;;;7379430;19;20019;-61
2021/08/23 03:46:35;;;;;;;13.90;6.22;;;;;;;;;;7378428;19;20014;-62
2021/08/23 03:49:01;;;;;;;9.40;5.03;;;;;;;;;;7375888;19;20128;-62
2021/08/23 03:51:27;;;;;;;8.98;5.07;;;;;;;;;;7378453;19;20026;-62
2021/08/23 03:53:53;;;;;;;9.13;5.68;;;;;;;;;;7378275;19;20018;-61
2021/08/23 03:56:19;;;;;;;10.27;5.38;;;;;;;;;;7378731;19;20109;-62
2021/08/23 03:58:45;;;;;;;10.23;5.20;;;;;;;;;;7374741;19;21044;-62
2021/08/23 04:01:11;;;;;;;8.32;5.40;;;;;;;;;;7378915;19;20014;-62
2021/08/23 04:03:37;;;;;;;12.73;5.60;;;;;;;;;;7379093;19;20044;-62
2021/08/23 04:06:03;;;;;;;8.75;5.72;;;;;;;;;;7377660;19;20022;-61
2021/08/23 04:08:29;;;;;;;7.40;5.72;;;;;;;;;;7376713;19;20899;-62
2021/08/23 04:10:55;;;;;;;8.90;6.20;;;;;;;;;;7377407;19;20114;-61
2021/08/23 04:13:21;;;;;;;8.52;5.70;;;;;;;;;;7378485;19;20023;-62
2021/08/23 04:15:47;;;;;;;8.05;6.18;;;;;;;;;;7378532;19;20043;-62
2021/08/23 04:18:13;;;;;;;6.70;5.45;;;;;;;;;;7376138;19;20023;-61
2021/08/23 04:20:39;;;;;;;11.93;6.15;;;;;;;;;;7378102;19;20019;-61
2021/08/23 04:23:05;;;;;;;8.85;6.60;;;;;;;;;;7379843;19;20022;-61
2021/08/23 04:25:31;;;;;;;11.75;6.70;;;;;;;;;;7377571;19;20031;-61
2021/08/23 04:27:57;;;;;;;8.88;6.78;;;;;;;;;;7376265;19;20018;-61
2021/08/23 04:30:23;;;;;;;9.93;7.50;;;;;;;;;;7378382;19;20034;-61
2021/08/23 04:32:50;;;;;;;11.23;8.13;;;;;;;;;;7378536;19;20505;-61
2021/08/23 04:35:16;;;;;;;10.27;7.93;;;;;;;;;;7376703;19;20784;-61
2021/08/23 04:37:42;;;;;;;10.43;8.63;;;;;;;;;;7374166;19;20011;-62
2021/08/23 04:40:08;;;;;;;11.35;8.93;;;;;;;;;;7372900;19;20033;-61
2021/08/23 04:42:34;;;;;;;17.60;9.70;;;;;;;;;;7377275;19;20042;-61
2021/08/23 04:45:00;;;;;;;14.70;10.07;;;;;;;;;;7378194;19;20373;-61
2021/08/23 04:47:26;;;;;;;16.63;10.68;;;;;;;;;;7375938;19;20018;-61
2021/08/23 04:49:52;;;;;;;15.93;10.68;;;;;;;;;;7373066;19;20487;-61
2021/08/23 04:52:18;;;;;;;13.73;10.32;;;;;;;;;;7377779;19;20025;-61
2021/08/23 04:54:44;;;;;;;18.38;11.80;;;;;;;;;;7379132;19;20031;-61
2021/08/23 04:57:10;;;;;;;15.48;11.10;;;;;;;;;;7377415;19;20109;-61
2021/08/23 04:59:36;;;;;;;15.40;11.40;;;;;;;;;;7377093;19;20011;-61
2021/08/23 05:02:02;;;;;;;14.25;10.93;;;;;;;;;;7377954;19;20023;-61
2021/08/23 05:04:28;;;;;;;13.05;10.68;;;;;;;;;;7376291;19;20019;-61
2021/08/23 05:06:54;;;;;;;13.45;9.35;;;;;;;;;;7375530;19;20023;-61
2021/08/23 05:09:20;;;;;;;13.07;9.88;;;;;;;;;;7374885;19;20094;-61
2021/08/23 05:11:46;;;;;;;15.15;9.20;;;;;;;;;;7375511;19;20035;-61
2021/08/23 05:14:12;;;;;;;14.05;8.48;;;16.40;99.90;;;;;;7377113;19;20018;-61
2021/08/23 05:16:38;;;;;;;10.43;8.25;;;;;;;;;;7373684;19;20025;-62
2021/08/23 05:19:04;;;;;;;8.75;6.80;;;;;;;;;;7372563;19;20953;-61
2021/08/23 05:21:30;;;;;;;9.85;6.80;;;;;;;;;;7376623;19;20015;-61
2021/08/23 05:23:57;;;;;;;9.63;6.75;;;;;;;;;;7374241;19;20025;-61
2021/08/23 05:26:23;;;;;;;10.27;7.03;;;;;;;;;;7375488;19;20581;-61
2021/08/23 05:28:49;;;;;;;10.32;7.25;;;;;;;;;;7370947;19;20009;-61
2021/08/23 05:31:15;;;;;;;8.95;6.90;;;;;;;;;;7375374;19;20017;-61
2021/08/23 05:33:41;;;;;;;10.45;6.97;;;;;;;;;;7375364;19;20011;-61
2021/08/23 05:36:07;;;;;;;11.40;7.38;;;;;;;;;;7374988;19;20007;-62
2021/08/23 05:38:33;;;;;;;13.88;7.90;;;;;;;;;;7372500;19;20021;-61
2021/08/23 05:40:59;;;;;;;9.15;6.88;;;;;;;;;;7374769;19;20356;-61
2021/08/23 05:43:25;;;;;;;10.80;6.10;;;;;;;;;;7375317;19;20042;-61
2021/08/23 05:45:51;;;;;;;17.40;6.45;;;;;;;;;;7372867;19;20514;-61
2021/08/23 05:48:17;;;;;;;11.30;6.25;;;;;;;;;;7373479;19;20057;-66
2021/08/23 05:50:43;;;;;;;11.82;5.93;;;;;;;;;;7376218;19;20064;-66
2021/08/23 05:53:09;;;;;;;8.48;5.75;;;;;;;;;;7376035;19;20006;-66
2021/08/23 05:55:35;;;;;;;10.18;5.95;;;;;;;;;;7375448;19;20014;-66
2021/08/23 05:58:02;;;;;;;13.60;5.43;;;;;;;;;;7372940;19;20058;-66
2021/08/23 06:00:28;;;;;;;11.10;5.75;;;;;;;;;;7374647;19;20042;-66
2021/08/23 06:02:54;;;;;;;14.88;5.90;;;;;;;;;;7375342;19;20010;-66
2021/08/23 06:05:19;;;;;;;7.03;5.22;;;;;;;;;;7374327;19;20726;-67
2021/08/23 06:07:45;;;;;;;9.88;5.18;;;;;;;;;;7374143;19;20043;-67
2021/08/23 06:10:12;;;;;;;12.10;6.57;;;;;;;;;;7371936;19;20011;-66
2021/08/23 06:12:38;;;;;;;8.80;5.32;;;;;;;;;;7375194;19;20025;-66
2021/08/23 06:15:04;;;;;;;9.63;4.93;;;;;;;;;;7373848;19;20030;-66
2021/08/23 06:17:30;;;;;;;9.85;5.03;;;;;;;;;;7372030;19;20014;-66
2021/08/23 06:19:56;;;;;;;9.10;4.93;;;;;;;;;;7372266;19;20011;-66
2021/08/23 06:22:22;;;;;;;9.32;5.60;;;;;;;;;;7375566;19;20015;-66
2021/08/23 06:24:48;;;;;;;9.13;4.85;;;;;;;;;;7374575;19;20280;-66
2021/08/23 06:27:14;;;;;;;9.32;5.32;;;;;;;;;;7372736;19;20542;-66
2021/08/23 06:29:40;;;;;;;8.43;5.53;;;;;;;;;;7372634;19;20023;-67
2021/08/23 06:32:06;;;;;;;9.18;5.28;;;;;;;;;;7374171;19;20014;-66
2021/08/23 06:34:32;;;;;;;8.32;4.78;;;15.60;99.90;;;;;;7377215;19;20778;-66
2021/08/23 06:36:58;;;;;;;14.80;4.95;;;;;;;;;;7380552;19;20042;-66
2021/08/23 06:39:23;;;;;;;7.45;4.90;;;;;;;;;;7378137;19;20491;-66
2021/08/23 06:41:51;;;;;;;9.65;5.20;;;;;;;;;;7379789;19;20031;-66
2021/08/23 06:44:17;;;;;;;8.65;5.35;;;;;;;;;;7379248;19;20082;-66
2021/08/23 06:46:43;;;;;;;12.70;4.55;;;;;;;;;;7381617;19;21172;-66
2021/08/23 06:49:09;;;;;;;10.48;5.05;;;;;;;;;;7376802;19;20129;-66
2021/08/23 06:51:35;;;;;;;7.72;5.07;;;;;;;;;;7380330;19;20125;-66
2021/08/23 06:54:01;;;;;;;8.02;4.32;;;;;;;;;;7381492;19;20083;-66
2021/08/23 06:56:27;;;;;;;7.05;4.90;;;;;;;;;;7380103;19;20019;-66
2021/08/23 06:58:54;;;;;;;8.68;4.60;;;;;;;;;;7375456;19;20052;-66
2021/08/23 07:01:20;;;;;;;8.75;4.82;;;;;;;;;;7380527;19;20026;-66
2021/08/23 07:03:48;;;;;;;7.13;4.72;;;;;;;;;;7376897;19;20107;-66
2021/08/23 07:06:14;;;;;;;5.97;4.32;;;;;;;;;;7378854;19;20056;-66
2021/08/23 07:08:40;;;;;;;6.38;4.07;;;;;;;;;;7379393;19;20518;-66
2021/08/23 07:11:06;;;;;;;11.68;4.35;;;;;;;;;;7382255;19;20050;-66
2021/08/23 07:13:32;;;;;;;13.05;4.45;;;;;;;;;;7380432;19;20099;-67
2021/08/23 07:15:58;;;;;;;7.95;4.43;;;;;;;;;;7379645;19;20018;-66
2021/08/23 07:18:24;;;;;;;7.82;5.18;;;;;;;;;;7375627;19;20025;-70
2021/08/23 07:20:53;;;;;;;8.32;4.32;;;;;;;;;;7380586;19;20010;-67
2021/08/23 07:23:19;;;;;;;10.13;4.15;;;;;;;;;;7382573;19;20085;-67
2021/08/23 07:25:45;;;;;;;12.18;4.30;;;;;;;;;;7382242;19;20047;-67
2021/08/23 07:28:13;;;;;;;11.55;4.20;;;;;;;;;;7379370;19;20019;-67
2021/08/23 07:30:39;;;;;;;6.97;4.10;;;;;;;;;;7381973;19;20043;-66
2021/08/23 07:33:05;;;;;;;6.47;4.00;;;;;;;;;;7379418;19;20018;-67
2021/08/23 07:35:31;;;;;;;9.52;4.28;;;;;;;;;;7382294;19;20038;-67
2021/08/23 07:37:57;;;;;;;15.80;4.28;;;;;;;;;;7379907;19;20051;-68
2021/08/23 07:40:22;;;;;;;9.10;4.65;;;;;;;;;;7377623;19;20023;-67
2021/08/23 07:42:48;;;;;;;9.90;4.40;;;;;;;;;;7379073;19;20025;-66
2021/08/23 07:45:16;;;;;;;11.73;4.28;;;;;;;;;;7378871;19;20499;-66
2021/08/23 07:47:44;;;;;;;7.47;4.25;;;;;;;;;;7378983;19;20022;-67
2021/08/23 07:50:10;;;;;;;9.07;3.88;;;;;;;;;;7374788;19;20562;-70
2021/08/23 07:52:36;;;;;;;8.35;4.40;;;;;;;;;;7375379;19;20022;-67
2021/08/23 07:55:02;;;;;;;10.60;4.20;;;;;;;;;;7376872;19;20030;-66
2021/08/23 07:57:28;;;;;;;5.82;3.90;;;;;;;;;;7376613;19;20370;-66
2021/08/23 07:59:54;;;;;;;8.38;3.80;;;;;;;;;;7378237;19;20033;-67
2021/08/23 08:02:20;;;;;;;6.40;3.50;;;;;;;;;;7380611;19;20026;-67
2021/08/23 08:04:48;;;;;;;11.63;4.53;;;;;;;;;;7381438;19;20037;-67
2021/08/23 08:07:14;;;;;;;6.60;3.47;;;;;;;;;;7380691;19;20093;-67
2021/08/23 08:09:40;;;;;;;7.60;4.47;;;;;;;;;;7376951;19;20473;-66
2021/08/23 08:12:06;;;;;;;5.78;3.55;;;;;;;;;;7380128;19;20023;-68
2021/08/23 08:14:33;;;;;;;5.53;3.60;;;;;;;;;;7380868;19;20523;-66
2021/08/23 08:16:59;;;;;;;9.25;3.88;;;;;;;;;;7378235;19;20050;-67
2021/08/23 08:19:25;;;;;;;5.35;3.50;;;;;;;;;;7377200;19;20510;-67
2021/08/23 08:21:51;;;;;;;10.68;2.97;;;;;;;;;;7354116;19;20893;-67
2021/08/23 08:24:17;;;;;;;8.43;3.38;;;;;;;;;;7379967;19;20090;-60
2021/08/23 08:26:43;;;;;;;12.05;3.10;;;;;;;;;;7378524;19;20448;-61
2021/08/23 08:29:09;;;;;;;6.78;3.47;;;;;;;;;;7377516;19;20114;-61
2021/08/23 08:31:35;;;;;;;7.70;3.22;;;;;;;;;;7373196;19;20026;-60
2021/08/23 08:34:01;;;;;;;6.75;2.85;;;;;;;;;;7380057;19;20042;-61
2021/08/23 08:36:29;;;;;;;8.70;2.92;;;;;;;;;;7379543;19;20014;-60
2021/08/23 08:38:55;;;;;;;7.38;3.20;;;;;;;;;;7375161;19;20014;-61
2021/08/23 08:41:20;;;;;;;5.25;2.67;;;16.90;99.90;;;;;;7378295;19;20023;-60
2021/08/23 08:43:46;;;;;;;8.57;3.00;;;;;;;;;;7378417;19;20047;-60
2021/08/23 08:46:12;;;;;;;6.28;2.80;;;;;;;;;;7378671;19;20019;-60
2021/08/23 08:48:38;;;;;;;5.68;2.65;;;;;;;;;;7373649;19;20526;-60
2021/08/23 08:51:04;;;;;;;8.40;2.85;;;;;;;;;;7379742;19;20066;-60
2021/08/23 08:53:30;;;;;;;7.10;3.17;;;;;;;;;;7375818;19;20022;-60
2021/08/23 08:55:56;;;;;;;7.03;2.92;;;;;;;;;;7379008;19;20018;-61
2021/08/23 08:58:23;;;;;;;5.53;2.67;;;;;;;;;;7375207;19;20777;-60
2021/08/23 09:00:49;;;;;;;5.32;2.95;;;;;;;;;;7377314;19;20018;-60
2021/08/23 09:03:15;;;;;;;9.68;2.60;;;;;;;;;;7378638;19;20630;-60
2021/08/23 09:05:42;;;;;;;9.45;3.92;;;;;;;;;;7379477;19;20014;-60
2021/08/23 09:08:08;;;;;;;15.38;6.70;;;;;;;;;;7376655;19;20018;-60
2021/08/23 09:10:40;;;;;;;5.00;2.80;;;;;;;;;;7378356;19;20489;-60
2021/08/23 09:13:06;;;;;;;8.27;2.53;;;;;;;;;;7378860;19;20014;-60
2021/08/23 09:15:32;;;;;;;8.02;2.72;;;;;;;;;;7378031;19;20022;-60
2021/08/23 09:17:58;;;;;;;4.35;2.58;;;;;;;;;;7376253;19;20017;-60
2021/08/23 09:20:24;;;;;;;5.40;2.40;;;;;;;;;;7375444;19;20002;-60
2021/08/23 09:22:50;;;;;;;5.10;2.35;;;;;;;;;;7378481;19;20030;-59
2021/08/23 09:25:17;;;;;;;3.85;2.30;;;;;;;;;;7377882;19;20730;-60
2021/08/23 09:27:43;;;;;;;4.15;2.15;;;;;;;;;;7376711;19;20015;-60
2021/08/23 09:30:11;;;;;;;5.25;2.90;;;;;;;;;;7374809;19;20018;-60
2021/08/23 09:32:37;;;;;;;9.20;2.28;;;;;;;;;;7377576;19;20018;-59
2021/08/23 09:35:03;;;;;;;3.63;2.05;;;;;;;;;;7377189;19;20021;-60
2021/08/23 09:37:29;;;;;;;8.43;2.30;;;;;;;;;;7374113;19;20021;-60
2021/08/23 09:39:55;;;;;;;5.40;1.90;;;;;;;;;;7375881;19;20019;-60
2021/08/23 09:42:23;;;;;;;8.52;3.13;;;;;;;;;;7377414;19;20036;-59
2021/08/23 09:44:49;;;;;;;10.55;2.30;;;;;;;;;;7376712;19;20800;-60
2021/08/23 09:47:15;;;;;;;5.72;2.22;;;;;;;;;;7376362;19;20011;-60
2021/08/23 09:49:42;;;;;;;5.60;2.65;;;;;;;;;;7374821;19;20025;-60
2021/08/23 09:52:08;;;;;;;6.28;2.45;;;;;;;;;;7374519;19;20014;-60
2021/08/23 09:54:34;;;;;;;7.50;1.90;;;;;;;;;;7374948;19;20019;-60
2021/08/23 09:57:00;;;;;;;2.97;2.20;;;;;;;;;;7376238;19;20019;-60
2021/08/23 09:59:26;;;;;;;7.82;2.42;;;;;;;;;;7374152;19;20022;-60
2021/08/23 10:01:52;;;;;;;5.13;2.85;;;;;;;;;;7377015;19;20021;-60
2021/08/23 10:04:18;;;;;;;9.82;4.57;;;;;;;;;;7377174;19;20019;-60
2021/08/23 10:06:44;;;;;;;5.07;2.83;;;;;;;;;;7377304;19;20011;-60
2021/08/23 10:09:10;;;;;;;7.25;3.10;;;;;;;;;;7372856;19;20014;-61
2021/08/23 10:11:36;;;;;;;9.07;2.45;;;;;;;;;;7376110;19;20078;-60
2021/08/23 10:14:02;;;;;;;6.57;2.55;;;;;;;;;;7374560;19;20494;-60
2021/08/23 10:16:28;;;;;;;5.47;2.53;;;18.40;99.90;;;;;;7375803;19;20019;-60
2021/08/23 10:18:54;;;;;;;4.78;2.28;;;;;;;;;;7373848;19;20847;-60
2021/08/23 10:21:31;;;;;;;5.28;2.28;;;;;;;;;;7374807;19;20018;-60
2021/08/23 10:23:57;;;;;;;8.90;2.25;;;;;;;;;;7376197;19;20015;-60
2021/08/23 10:26:23;;;;;;;7.85;2.20;;;;;;;;;;7374504;19;20027;-60
2021/08/23 10:28:49;;;;;;;7.63;1.85;;;;;;;;;;7374434;19;20413;-60
2021/08/23 10:31:15;;;;;;;4.57;1.92;;;;;;;;;;7375229;19;20014;-60
2021/08/23 10:33:42;;;;;;;17.95;6.60;;;;;;;;;;7377086;19;20521;-60
2021/08/23 10:36:08;;;;;;;26.67;12.40;;;;;;;;;;7376160;19;20025;-60
2021/08/23 10:38:35;;;;;;;5.75;3.05;;;;;;;;;;7372594;19;20022;-60
2021/08/23 10:41:01;;;;;;;3.60;2.08;;;;;;;;;;7374877;19;20029;-60
2021/08/23 10:43:30;;;;;;;4.45;2.05;;;;;;;;;;7372591;19;20022;-60
2021/08/23 10:45:56;;;;;;;5.35;2.05;;;;;;;;;;7374211;19;20132;-60
2021/08/23 10:48:22;;;;;;;2.75;1.90;;;;;;;;;;7373146;19;20036;-60
2021/08/23 10:50:48;;;;;;;3.50;1.80;;;;;;;;;;7374585;19;20086;-60
2021/08/23 10:53:14;;;;;;;4.00;1.95;;;;;;;;;;7373393;19;20018;-60
2021/08/23 10:55:40;;;;;;;5.07;1.90;;;;;;;;;;7374664;19;20018;-60
2021/08/23 10:58:06;;;;;;;2.65;1.80;;;;;;;;;;7372710;19;20039;-60
2021/08/23 11:00:32;;;;;;;4.35;2.10;;;;;;;;;;7373585;19;20025;-60
2021/08/23 11:02:59;;;;;;;4.38;1.70;;;;;;;;;;7371921;19;20011;-60
2021/08/23 11:05:25;;;;;;;5.22;1.75;;;;;;;;;;7374491;19;20011;-60
2021/08/23 11:07:51;;;;;;;5.22;1.80;;;;;;;;;;7372152;19;20014;-60
2021/08/23 11:10:17;;;;;;;2.45;1.80;;;;;;;;;;7371729;19;20982;-60
2021/08/23 11:12:44;;;;;;;2.78;1.80;;;;;;;;;;7372543;19;20372;-60
2021/08/23 11:15:10;;;;;;;3.95;1.80;;;;;;;;;;7372982;19;20793;-60
2021/08/23 11:17:36;;;;;;;3.13;1.55;;;;;;;;;;7373250;19;20070;-60
2021/08/23 11:20:03;;;;;;;3.25;1.58;;;;;;;;;;7372029;19;20014;-60
2021/08/23 11:22:29;;;;;;;4.95;2.00;;;;;;;;;;7379627;19;20022;-60
2021/08/23 11:24:55;;;;;;;2.58;1.63;;;;;;;;;;7381940;19;20010;-60
2021/08/23 11:27:21;;;;;;;7.80;2.20;;;;;;;;;;7381816;19;20022;-61
2021/08/23 11:29:47;;;;;;;3.28;1.70;;;;;;;;;;7378597;19;20102;-60
2021/08/23 11:32:13;;;;;;;3.33;2.10;;;;;;;;;;7380814;19;20533;-60
2021/08/23 11:34:39;;;;;;;4.43;1.73;;;;;;;;;;7381406;19;20021;-61
2021/08/23 11:37:05;;;;;;;3.33;2.03;;;;;;;;;;7379784;19;20024;-61
2021/08/23 11:39:31;;;;;;;4.85;1.90;;;;;;;;;;7378634;19;20018;-61
2021/08/23 11:41:57;;;;;;;3.70;1.90;;;;;;;;;;7380003;19;20024;-60
2021/08/23 11:44:23;;;;;;;5.85;2.00;;;;;;;;;;7378002;19;20094;-60
2021/08/23 11:46:49;;;;;;;4.53;1.95;;;;;;;;;;7377970;19;20773;-61
2021/08/23 11:49:15;;;;;;;3.70;2.20;;;;;;;;;;7375668;19;20051;-60
2021/08/23 11:51:41;;;;;;;5.82;1.70;;;;;;;;;;7376193;19;20014;-61
2021/08/23 11:54:06;;;;;;;5.30;1.70;;;18.20;99.90;;;;;;7378173;19;20009;-61
2021/08/23 11:56:32;;;;;;;3.03;1.92;;;;;;;;;;7378620;19;20026;-61
2021/08/23 11:58:58;;;;;;;6.72;1.77;;;;;;;;;;7373920;19;20118;-60
2021/08/23 12:01:24;;;;;;;2.15;1.60;;;;;;;;;;7376743;19;20045;-60
2021/08/23 12:03:50;;;;;;;3.38;1.90;;;;;;;;;;7379658;19;20031;-60
2021/08/23 12:06:16;;;;;;;6.20;1.63;;;;;;;;;;7377018;19;20499;-61
2021/08/23 12:08:43;;;;;;;3.10;1.75;;;;;;;;;;7376915;19;20023;-60
2021/08/23 12:11:10;;;;;;;2.75;1.83;;;;;;;;;;7378197;19;20135;-60
2021/08/23 12:13:36;;;;;;;3.60;1.75;;;;;;;;;;7379019;19;20018;-61
2021/08/23 12:16:02;;;;;;;3.30;1.70;;;;;;;;;;7377695;19;20010;-61
2021/08/23 12:18:29;;;;;;;3.95;1.73;;;;;;;;;;7376633;19;20014;-60
2021/08/23 12:20:55;;;;;;;5.28;1.63;;;;;;;;;;7377074;19;20031;-60
2021/08/23 12:23:21;;;;;;;4.18;1.52;;;;;;;;;;7378403;19;20377;-60
2021/08/23 12:25:47;;;;;;;4.03;2.13;;;;;;;;;;7375876;19;20035;-60
2021/08/23 12:28:13;;;;;;;5.28;1.77;;;;;;;;;;7375448;19;20722;-61
2021/08/23 12:30:39;;;;;;;3.03;1.55;;;;;;;;;;7377660;19;20021;-61
2021/08/23 12:33:05;;;;;;;6.65;1.80;;;;;;;;;;7375493;19;20006;-61
2021/08/23 12:35:31;;;;;;;11.90;2.05;;;;;;;;;;7376872;19;20018;-61
2021/08/23 12:37:57;;;;;;;7.20;1.70;;;;;;;;;;7375789;19;20098;-61
2021/08/23 12:40:23;;;;;;;1.77;1.42;;;;;;;;;;7375774;19;20027;-61
2021/08/23 12:42:49;;;;;;;6.13;1.80;;;;;;;;;;7377023;19;20514;-61
2021/08/23 12:45:15;;;;;;;4.45;1.83;;;;;;;;;;7378102;19;20024;-61
2021/08/23 12:47:41;;;;;;;7.03;1.75;;;;;;;;;;7376066;19;20032;-61
2021/08/23 12:50:07;;;;;;;4.50;2.00;;;;;;;;;;7374766;19;20015;-60
2021/08/23 12:52:33;;;;;;;6.65;1.98;;;;;;;;;;7376292;19;20014;-61
2021/08/23 12:54:59;;;;;;;5.63;1.92;;;;;;;;;;7376335;19;20011;-61
2021/08/23 12:57:25;;;;;;;8.13;1.75;;;;;;;;;;7375008;19;20018;-61
2021/08/23 12:59:51;;;;;;;4.10;1.60;;;;;;;;;;7374308;19;20040;-61
2021/08/23 13:02:17;;;;;;;2.63;1.50;;;;;;;;;;7378983;19;20007;-61
2021/08/23 13:04:43;;;;;;;1.98;1.52;;;;;;;;;;7374403;19;20425;-61
2021/08/23 13:07:09;;;;;;;3.42;1.40;;;;;;;;;;7375569;19;20010;-61
2021/08/23 13:09:35;;;;;;;2.67;1.50;;;;;;;;;;7374414;19;20030;-61
2021/08/23 13:12:01;;;;;;;4.70;2.00;;;;;;;;;;7376347;19;20010;-61
2021/08/23 13:14:27;;;;;;;3.35;1.60;;;;;;;;;;7376140;19;20373;-61
2021/08/23 13:16:53;;;;;;;2.45;1.45;;;;;;;;;;7378327;19;20014;-61
2021/08/23 13:19:19;;;;;;;8.73;2.00;;;;;;;;;;7371685;19;20026;-61
2021/08/23 13:21:45;;;;;;;7.30;2.78;;;;;;;;;;7376110;19;20025;-60
2021/08/23 13:24:11;;;;;;;6.43;2.83;;;;;;;;;;7374739;19;20010;-60
2021/08/23 13:26:38;;;;;;;4.25;1.73;;;;;;;;;;7374879;19;20077;-61
2021/08/23 13:29:04;;;;;;;4.10;1.95;;;;;;;;;;7372824;19;20086;-61
2021/08/23 13:31:30;;;;;;;3.47;1.90;;;;;;;;;;7376097;19;20028;-60
2021/08/23 13:33:56;;;;;;;6.63;1.77;;;;;;;;;;7371931;19;20010;-61
2021/08/23 13:36:22;;;;;;;2.63;1.60;;;;;;;;;;7375742;19;20626;-61
2021/08/23 13:38:48;;;;;;;4.53;1.75;;;;;;;;;;7373898;19;20035;-60
2021/08/23 13:41:14;;;;;;;4.07;1.50;;;;;;;;;;7374767;19;20022;-61
2021/08/23 13:43:42;;;;;;;2.60;1.45;;;;;;;;;;7371647;19;20022;-60
2021/08/23 13:46:08;;;;;;;3.55;1.60;;;;;;;;;;7374793;19;20038;-60
2021/08/23 13:48:34;;;;;;;3.13;1.73;;;;;;;;;;7373989;19;20018;-61
2021/08/23 13:51:01;;;;;;;2.50;1.60;;;;;;;;;;7373785;19;20628;-61
2021/08/23 13:53:27;;;;;;;4.40;1.70;;;;;;;;;;7374273;19;20068;-60
2021/08/23 13:55:53;;;;;;;2.88;1.65;;;;;;;;;;7372806;19;20486;-60
2021/08/23 13:58:19;;;;;;;4.97;1.90;;;;;;;;;;7371026;19;20014;-60
2021/08/23 14:00:45;;;;;;;3.80;1.83;;;;;;;;;;7373956;19;20051;-61
2021/08/23 14:03:11;;;;;;;3.28;1.65;;;;;;;;;;7374680;19;20031;-61
2021/08/23 14:05:37;;;;;;;4.25;1.73;;;;;;;;;;7369834;19;20090;-60
2021/08/23 14:08:03;;;;;;;7.25;2.05;;;;;;;;;;7374051;19;20025;-61
2021/08/23 14:10:28;;;;;;;5.35;1.58;;;20.30;99.90;;;;;;7375251;19;20882;-60
2021/08/23 14:12:54;;;;;;;6.43;3.40;;;;;;;;;;7375244;19;20073;-61
2021/08/23 14:15:20;;;;;;;6.55;1.90;;;;;;;;;;7376229;19;20036;-61
2021/08/23 14:17:46;;;;;;;4.78;2.00;;;;;;;;;;7375734;19;20054;-61
2021/08/23 14:20:12;;;;;;;3.55;1.60;;;;;;;;;;7374164;19;20388;-61
2021/08/23 14:22:38;;;;;;;4.53;1.60;;;;;;;;;;7375679;19;20109;-60
2021/08/23 14:25:04;;;;;;;2.85;1.77;;;;;;;;;;7376321;19;20014;-61